sensor_id;sensor_type;location;lat;lon;timestamp;P1;durP1;ratioP1;P2;durP2;ratioP2
20857;SDS011;10589;53.636;10.012;2024-01-25T04:47:27;39.87;;;6.30;;
20857;SDS011;10589;53.636;10.012;2024-01-25T04:49:52;38.57;;;6.10;;
20857;SDS011;10589;53.636;10.012;2024-01-25T04:52:18;29.87;;;5.63;;
20857;SDS011;10589;53.636;10.012;2024-01-25T04:54:44;43.57;;;6.30;;
20857;SDS011;10589;53.636;10.012;2024-01-25T04:57:09;38.73;;;6.53;;
20857;SDS011;10589;53.636;10.012;2024-01-25T04:59:35;40.67;;;5.97;;
20857;SDS011;10589;53.636;10.012;2024-01-25T05:02:01;36.70;;;6.70;;
20857;SDS011;10589;53.636;10.012;2024-01-25T05:04:27;34.80;;;6.33;;
20857;SDS011;10589;53.636;10.012;2024-01-25T05:06:54;36.60;;;6.80;;
20857;SDS011;10589;53.636;10.012;2024-01-25T05:09:20;41.43;;;6.50;;
20857;SDS011;10589;53.636;10.012;2024-01-25T05:11:45;44.40;;;6.93;;
20857;SDS011;10589;53.636;10.012;2024-01-25T05:14:11;46.90;;;7.20;;
20857;SDS011;10589;53.636;10.012;2024-01-25T05:16:36;37.50;;;5.60;;
20857;SDS011;10589;53.636;10.012;2024-01-25T05:19:02;33.97;;;5.97;;
20857;SDS011;10589;53.636;10.012;2024-01-25T05:21:28;45.50;;;6.03;;
20857;SDS011;10589;53.636;10.012;2024-01-25T05:23:53;35.60;;;6.27;;
20857;SDS011;10589;53.636;10.012;2024-01-25T05:26:19;39.30;;;5.57;;
20857;SDS011;10589;53.636;10.012;2024-01-25T05:28:44;31.23;;;5.80;;
20857;SDS011;10589;53.636;10.012;2024-01-25T05:31:10;33.10;;;5.80;;
20857;SDS011;10589;53.636;10.012;2024-01-25T05:33:40;38.07;;;5.87;;
20857;SDS011;10589;53.636;10.012;2024-01-25T05:36:06;36.17;;;6.27;;
20857;SDS011;10589;53.636;10.012;2024-01-25T05:38:32;38.67;;;6.30;;
20857;SDS011;10589;53.636;10.012;2024-01-25T05:40:58;29.27;;;6.17;;
20857;SDS011;10589;53.636;10.012;2024-01-25T05:43:24;39.97;;;5.63;;
20857;SDS011;10589;53.636;10.012;2024-01-25T05:45:50;36.77;;;6.30;;
20857;SDS011;10589;53.636;10.012;2024-01-25T05:48:15;48.83;;;6.53;;
20857;SDS011;10589;53.636;10.012;2024-01-25T05:50:41;35.90;;;6.83;;
20857;SDS011;10589;53.636;10.012;2024-01-25T05:53:07;39.17;;;5.63;;
20857;SDS011;10589;53.636;10.012;2024-01-25T05:55:32;44.63;;;5.80;;
20857;SDS011;10589;53.636;10.012;2024-01-25T05:57:58;41.10;;;6.87;;
20857;SDS011;10589;53.636;10.012;2024-01-25T06:00:23;42.60;;;6.00;;
20857;SDS011;10589;53.636;10.012;2024-01-25T06:02:49;36.73;;;5.93;;
20857;SDS011;10589;53.636;10.012;2024-01-25T06:05:14;45.07;;;6.63;;
20857;SDS011;10589;53.636;10.012;2024-01-25T06:07:40;34.83;;;5.53;;
20857;SDS011;10589;53.636;10.012;2024-01-25T06:10:06;53.37;;;7.20;;
20857;SDS011;10589;53.636;10.012;2024-01-25T06:12:32;42.87;;;6.13;;
20857;SDS011;10589;53.636;10.012;2024-01-25T06:14:58;37.40;;;7.70;;
20857;SDS011;10589;53.636;10.012;2024-01-25T06:17:23;31.47;;;5.50;;
20857;SDS011;10589;53.636;10.012;2024-01-25T06:19:49;32.70;;;5.77;;
20857;SDS011;10589;53.636;10.012;2024-01-25T06:22:14;38.47;;;6.43;;
20857;SDS011;10589;53.636;10.012;2024-01-25T06:24:41;28.60;;;5.83;;
20857;SDS011;10589;53.636;10.012;2024-01-25T06:27:09;28.73;;;5.37;;
20857;SDS011;10589;53.636;10.012;2024-01-25T06:29:35;33.73;;;6.13;;
20857;SDS011;10589;53.636;10.012;2024-01-25T06:32:00;35.70;;;5.93;;
20857;SDS011;10589;53.636;10.012;2024-01-25T06:34:26;43.73;;;6.57;;
20857;SDS011;10589;53.636;10.012;2024-01-25T06:36:51;34.80;;;5.87;;
20857;SDS011;10589;53.636;10.012;2024-01-25T06:39:17;39.60;;;6.90;;
20857;SDS011;10589;53.636;10.012;2024-01-25T06:41:43;35.63;;;5.90;;
20857;SDS011;10589;53.636;10.012;2024-01-25T06:44:08;41.80;;;5.67;;
20857;SDS011;10589;53.636;10.012;2024-01-25T06:46:34;29.77;;;4.90;;
20857;SDS011;10589;53.636;10.012;2024-01-25T06:49:00;35.10;;;5.07;;
20857;SDS011;10589;53.636;10.012;2024-01-25T06:51:26;31.20;;;5.33;;
20857;SDS011;10589;53.636;10.012;2024-01-25T06:53:51;35.43;;;6.33;;
20857;SDS011;10589;53.636;10.012;2024-01-25T06:56:17;30.40;;;5.77;;
20857;SDS011;10589;53.636;10.012;2024-01-25T06:58:42;39.27;;;6.63;;
20857;SDS011;10589;53.636;10.012;2024-01-25T07:01:08;42.37;;;6.63;;
20857;SDS011;10589;53.636;10.012;2024-01-25T07:03:34;41.13;;;5.70;;
20857;SDS011;10589;53.636;10.012;2024-01-25T07:06:00;39.03;;;6.30;;
20857;SDS011;10589;53.636;10.012;2024-01-25T07:08:25;38.83;;;6.37;;
20857;SDS011;10589;53.636;10.012;2024-01-25T07:10:51;35.50;;;6.50;;
20857;SDS011;10589;53.636;10.012;2024-01-25T07:13:17;34.50;;;5.50;;
20857;SDS011;10589;53.636;10.012;2024-01-25T07:15:42;34.60;;;6.10;;
20857;SDS011;10589;53.636;10.012;2024-01-25T07:18:08;28.80;;;5.10;;
20857;SDS011;10589;53.636;10.012;2024-01-25T07:20:33;28.80;;;5.53;;
20857;SDS011;10589;53.636;10.012;2024-01-25T07:23:00;37.47;;;6.00;;
20857;SDS011;10589;53.636;10.012;2024-01-25T07:25:26;31.33;;;5.30;;
20857;SDS011;10589;53.636;10.012;2024-01-25T07:27:51;37.70;;;5.40;;
20857;SDS011;10589;53.636;10.012;2024-01-25T07:30:17;32.13;;;5.70;;
20857;SDS011;10589;53.636;10.012;2024-01-25T07:32:43;32.17;;;5.80;;
20857;SDS011;10589;53.636;10.012;2024-01-25T07:35:08;42.53;;;5.93;;
20857;SDS011;10589;53.636;10.012;2024-01-25T07:37:37;39.83;;;5.63;;
20857;SDS011;10589;53.636;10.012;2024-01-25T07:40:04;43.33;;;6.90;;
20857;SDS011;10589;53.636;10.012;2024-01-25T07:42:31;36.70;;;6.43;;
20857;SDS011;10589;53.636;10.012;2024-01-25T07:44:57;40.33;;;6.13;;
20857;SDS011;10589;53.636;10.012;2024-01-25T07:47:23;42.00;;;6.23;;
20857;SDS011;10589;53.636;10.012;2024-01-25T07:49:48;50.70;;;6.27;;
20857;SDS011;10589;53.636;10.012;2024-01-25T07:52:14;38.20;;;6.43;;
20857;SDS011;10589;53.636;10.012;2024-01-25T07:54:40;27.37;;;5.80;;
20857;SDS011;10589;53.636;10.012;2024-01-25T07:57:05;39.30;;;6.33;;
20857;SDS011;10589;53.636;10.012;2024-01-25T07:59:31;38.30;;;6.23;;
20857;SDS011;10589;53.636;10.012;2024-01-25T08:01:56;40.20;;;5.77;;
20857;SDS011;10589;53.636;10.012;2024-01-25T08:04:22;42.70;;;5.67;;
20857;SDS011;10589;53.636;10.012;2024-01-25T08:06:48;37.13;;;5.93;;
20857;SDS011;10589;53.636;10.012;2024-01-25T08:09:13;37.57;;;5.83;;
20857;SDS011;10589;53.636;10.012;2024-01-25T08:11:39;46.80;;;5.70;;
20857;SDS011;10589;53.636;10.012;2024-01-25T08:14:05;34.87;;;5.47;;
20857;SDS011;10589;53.636;10.012;2024-01-25T08:16:30;37.13;;;5.90;;
20857;SDS011;10589;53.636;10.012;2024-01-25T08:18:56;32.83;;;5.93;;
20857;SDS011;10589;53.636;10.012;2024-01-25T08:21:23;36.20;;;6.10;;
20857;SDS011;10589;53.636;10.012;2024-01-25T08:23:49;42.90;;;6.17;;
20857;SDS011;10589;53.636;10.012;2024-01-25T08:26:14;35.47;;;5.93;;
20857;SDS011;10589;53.636;10.012;2024-01-25T08:28:40;29.33;;;4.93;;
20857;SDS011;10589;53.636;10.012;2024-01-25T08:31:08;40.83;;;5.93;;
20857;SDS011;10589;53.636;10.012;2024-01-25T08:33:33;37.37;;;5.93;;
20857;SDS011;10589;53.636;10.012;2024-01-25T08:35:59;31.30;;;4.47;;
20857;SDS011;10589;53.636;10.012;2024-01-25T08:38:25;27.93;;;5.63;;
20857;SDS011;10589;53.636;10.012;2024-01-25T08:40:50;39.63;;;6.07;;
20857;SDS011;10589;53.636;10.012;2024-01-25T08:43:16;34.10;;;5.47;;
20857;SDS011;10589;53.636;10.012;2024-01-25T08:45:42;38.73;;;6.50;;
20857;SDS011;10589;53.636;10.012;2024-01-25T08:48:08;40.37;;;6.00;;
20857;SDS011;10589;53.636;10.012;2024-01-25T08:50:34;34.40;;;5.80;;
20857;SDS011;10589;53.636;10.012;2024-01-25T08:53:00;42.73;;;6.53;;
20857;SDS011;10589;53.636;10.012;2024-01-25T08:55:26;32.53;;;7.20;;
20857;SDS011;10589;53.636;10.012;2024-01-25T08:57:52;34.17;;;6.27;;
20857;SDS011;10589;53.636;10.012;2024-01-25T09:00:17;42.40;;;5.70;;
20857;SDS011;10589;53.636;10.012;2024-01-25T09:02:43;30.20;;;5.70;;
20857;SDS011;10589;53.636;10.012;2024-01-25T09:05:10;34.33;;;6.30;;
20857;SDS011;10589;53.636;10.012;2024-01-25T09:07:35;41.40;;;6.03;;
20857;SDS011;10589;53.636;10.012;2024-01-25T09:10:01;31.90;;;5.40;;
20857;SDS011;10589;53.636;10.012;2024-01-25T09:12:29;34.73;;;5.10;;
20857;SDS011;10589;53.636;10.012;2024-01-25T09:14:55;33.93;;;5.70;;
20857;SDS011;10589;53.636;10.012;2024-01-25T09:17:20;32.67;;;5.83;;
20857;SDS011;10589;53.636;10.012;2024-01-25T09:19:49;32.20;;;6.17;;
20857;SDS011;10589;53.636;10.012;2024-01-25T09:22:15;39.37;;;8.00;;
20857;SDS011;10589;53.636;10.012;2024-01-25T09:24:44;40.50;;;6.03;;
20857;SDS011;10589;53.636;10.012;2024-01-25T09:27:09;30.60;;;6.00;;
20857;SDS011;10589;53.636;10.012;2024-01-25T09:29:35;34.33;;;4.63;;
20857;SDS011;10589;53.636;10.012;2024-01-25T09:32:03;36.57;;;6.27;;
20857;SDS011;10589;53.636;10.012;2024-01-25T09:34:29;30.97;;;5.00;;
20857;SDS011;10589;53.636;10.012;2024-01-25T09:36:55;43.20;;;6.17;;
20857;SDS011;10589;53.636;10.012;2024-01-25T09:39:20;40.70;;;6.43;;
20857;SDS011;10589;53.636;10.012;2024-01-25T09:41:46;38.47;;;6.03;;
20857;SDS011;10589;53.636;10.012;2024-01-25T09:44:11;29.00;;;4.80;;
20857;SDS011;10589;53.636;10.012;2024-01-25T09:46:38;31.73;;;5.73;;
20857;SDS011;10589;53.636;10.012;2024-01-25T09:49:06;37.30;;;5.37;;
20857;SDS011;10589;53.636;10.012;2024-01-25T09:51:39;37.30;;;6.53;;
20857;SDS011;10589;53.636;10.012;2024-01-25T09:54:06;36.40;;;6.20;;
20857;SDS011;10589;53.636;10.012;2024-01-25T09:56:32;36.37;;;5.97;;
20857;SDS011;10589;53.636;10.012;2024-01-25T09:58:59;41.60;;;5.30;;
20857;SDS011;10589;53.636;10.012;2024-01-25T10:01:25;31.47;;;4.90;;
20857;SDS011;10589;53.636;10.012;2024-01-25T10:03:51;32.07;;;6.13;;
20857;SDS011;10589;53.636;10.012;2024-01-25T10:06:17;29.73;;;4.80;;
20857;SDS011;10589;53.636;10.012;2024-01-25T10:08:43;33.27;;;5.77;;
20857;SDS011;10589;53.636;10.012;2024-01-25T10:11:09;35.43;;;5.70;;
20857;SDS011;10589;53.636;10.012;2024-01-25T10:13:42;34.90;;;4.90;;
20857;SDS011;10589;53.636;10.012;2024-01-25T10:16:16;31.60;;;5.43;;
20857;SDS011;10589;53.636;10.012;2024-01-25T10:18:43;30.50;;;5.33;;
20857;SDS011;10589;53.636;10.012;2024-01-25T10:21:11;34.10;;;5.00;;
20857;SDS011;10589;53.636;10.012;2024-01-25T10:23:38;37.07;;;4.70;;
20857;SDS011;10589;53.636;10.012;2024-01-25T10:26:04;29.47;;;5.23;;
20857;SDS011;10589;53.636;10.012;2024-01-25T10:28:30;31.53;;;5.50;;
20857;SDS011;10589;53.636;10.012;2024-01-25T10:30:59;23.87;;;4.47;;
20857;SDS011;10589;53.636;10.012;2024-01-25T10:33:26;30.73;;;4.50;;
20857;SDS011;10589;53.636;10.012;2024-01-25T10:35:56;36.93;;;5.73;;
20857;SDS011;10589;53.636;10.012;2024-01-25T10:38:31;32.30;;;4.13;;
20857;SDS011;10589;53.636;10.012;2024-01-25T10:40:59;27.70;;;4.60;;
20857;SDS011;10589;53.636;10.012;2024-01-25T10:43:26;25.90;;;4.97;;
20857;SDS011;10589;53.636;10.012;2024-01-25T10:45:53;24.97;;;3.90;;
20857;SDS011;10589;53.636;10.012;2024-01-25T10:48:22;26.10;;;4.23;;
20857;SDS011;10589;53.636;10.012;2024-01-25T10:50:48;35.87;;;5.03;;
20857;SDS011;10589;53.636;10.012;2024-01-25T10:53:14;29.43;;;4.77;;
20857;SDS011;10589;53.636;10.012;2024-01-25T10:55:41;26.50;;;4.73;;
20857;SDS011;10589;53.636;10.012;2024-01-25T10:58:07;22.80;;;4.13;;
20857;SDS011;10589;53.636;10.012;2024-01-25T11:00:33;38.20;;;5.60;;
20857;SDS011;10589;53.636;10.012;2024-01-25T11:03:00;27.10;;;4.50;;
20857;SDS011;10589;53.636;10.012;2024-01-25T11:05:27;29.70;;;4.63;;
20857;SDS011;10589;53.636;10.012;2024-01-25T11:07:53;27.27;;;4.63;;
20857;SDS011;10589;53.636;10.012;2024-01-25T11:10:21;26.40;;;5.10;;
20857;SDS011;10589;53.636;10.012;2024-01-25T11:12:51;28.23;;;4.57;;
20857;SDS011;10589;53.636;10.012;2024-01-25T11:15:31;27.87;;;4.67;;
20857;SDS011;10589;53.636;10.012;2024-01-25T11:17:58;22.23;;;4.77;;
20857;SDS011;10589;53.636;10.012;2024-01-25T11:20:25;31.27;;;4.20;;
20857;SDS011;10589;53.636;10.012;2024-01-25T11:22:59;23.23;;;4.57;;
20857;SDS011;10589;53.636;10.012;2024-01-25T11:25:28;19.40;;;3.60;;
20857;SDS011;10589;53.636;10.012;2024-01-25T11:27:55;22.53;;;3.73;;
20857;SDS011;10589;53.636;10.012;2024-01-25T11:30:21;20.27;;;4.00;;
20857;SDS011;10589;53.636;10.012;2024-01-25T11:32:47;26.03;;;3.83;;
20857;SDS011;10589;53.636;10.012;2024-01-25T11:35:13;24.67;;;4.33;;
20857;SDS011;10589;53.636;10.012;2024-01-25T11:37:48;26.10;;;4.10;;
20857;SDS011;10589;53.636;10.012;2024-01-25T11:40:15;25.03;;;4.10;;
20857;SDS011;10589;53.636;10.012;2024-01-25T11:42:42;26.97;;;4.00;;
20857;SDS011;10589;53.636;10.012;2024-01-25T11:45:12;20.20;;;4.23;;
20857;SDS011;10589;53.636;10.012;2024-01-25T11:47:39;22.27;;;3.13;;
20857;SDS011;10589;53.636;10.012;2024-01-25T11:50:06;25.93;;;4.07;;
20857;SDS011;10589;53.636;10.012;2024-01-25T11:52:33;22.03;;;4.87;;
20857;SDS011;10589;53.636;10.012;2024-01-25T11:55:02;26.23;;;3.53;;
20857;SDS011;10589;53.636;10.012;2024-01-25T11:57:29;28.00;;;4.20;;
20857;SDS011;10589;53.636;10.012;2024-01-25T11:59:57;30.27;;;4.03;;
20857;SDS011;10589;53.636;10.012;2024-01-25T12:02:23;30.80;;;4.40;;
20857;SDS011;10589;53.636;10.012;2024-01-25T12:04:49;34.67;;;4.93;;
20857;SDS011;10589;53.636;10.012;2024-01-25T12:07:18;28.90;;;4.90;;
20857;SDS011;10589;53.636;10.012;2024-01-25T12:09:45;25.60;;;4.67;;
20857;SDS011;10589;53.636;10.012;2024-01-25T12:12:10;27.00;;;4.57;;
20857;SDS011;10589;53.636;10.012;2024-01-25T12:14:36;26.93;;;4.80;;
20857;SDS011;10589;53.636;10.012;2024-01-25T12:17:03;26.00;;;4.43;;
20857;SDS011;10589;53.636;10.012;2024-01-25T12:19:29;23.17;;;4.23;;
20857;SDS011;10589;53.636;10.012;2024-01-25T12:21:55;22.87;;;4.13;;
20857;SDS011;10589;53.636;10.012;2024-01-25T12:24:21;25.93;;;4.47;;
20857;SDS011;10589;53.636;10.012;2024-01-25T12:26:47;33.07;;;5.77;;
20857;SDS011;10589;53.636;10.012;2024-01-25T12:29:13;31.00;;;4.80;;
20857;SDS011;10589;53.636;10.012;2024-01-25T12:31:38;28.17;;;4.77;;
20857;SDS011;10589;53.636;10.012;2024-01-25T12:34:11;32.23;;;4.50;;
20857;SDS011;10589;53.636;10.012;2024-01-25T12:36:39;29.83;;;4.43;;
20857;SDS011;10589;53.636;10.012;2024-01-25T12:39:05;29.20;;;4.73;;
20857;SDS011;10589;53.636;10.012;2024-01-25T12:41:31;30.73;;;4.93;;
20857;SDS011;10589;53.636;10.012;2024-01-25T12:43:57;26.10;;;4.77;;
20857;SDS011;10589;53.636;10.012;2024-01-25T12:46:23;28.73;;;4.70;;
20857;SDS011;10589;53.636;10.012;2024-01-25T12:48:48;24.97;;;4.73;;
20857;SDS011;10589;53.636;10.012;2024-01-25T12:51:14;27.13;;;5.30;;
20857;SDS011;10589;53.636;10.012;2024-01-25T12:53:40;30.27;;;4.93;;
20857;SDS011;10589;53.636;10.012;2024-01-25T12:56:05;48.20;;;7.40;;
20857;SDS011;10589;53.636;10.012;2024-01-25T12:58:31;30.00;;;4.60;;
20857;SDS011;10589;53.636;10.012;2024-01-25T13:00:57;28.30;;;5.40;;
20857;SDS011;10589;53.636;10.012;2024-01-25T13:03:22;33.27;;;4.60;;
20857;SDS011;10589;53.636;10.012;2024-01-25T13:05:48;24.40;;;4.00;;
20857;SDS011;10589;53.636;10.012;2024-01-25T13:08:13;30.07;;;5.23;;
20857;SDS011;10589;53.636;10.012;2024-01-25T13:10:39;28.57;;;5.03;;
20857;SDS011;10589;53.636;10.012;2024-01-25T13:13:04;28.90;;;4.70;;
20857;SDS011;10589;53.636;10.012;2024-01-25T13:15:30;27.60;;;4.50;;
20857;SDS011;10589;53.636;10.012;2024-01-25T13:17:58;31.60;;;5.60;;
20857;SDS011;10589;53.636;10.012;2024-01-25T13:20:23;28.03;;;4.63;;
20857;SDS011;10589;53.636;10.012;2024-01-25T13:22:49;27.87;;;4.93;;
20857;SDS011;10589;53.636;10.012;2024-01-25T13:25:14;26.07;;;5.00;;
20857;SDS011;10589;53.636;10.012;2024-01-25T13:27:40;35.97;;;5.07;;
20857;SDS011;10589;53.636;10.012;2024-01-25T13:30:05;27.50;;;4.60;;
20857;SDS011;10589;53.636;10.012;2024-01-25T13:32:32;29.63;;;3.93;;
20857;SDS011;10589;53.636;10.012;2024-01-25T13:34:57;31.13;;;5.47;;
20857;SDS011;10589;53.636;10.012;2024-01-25T13:37:23;27.73;;;4.60;;
20857;SDS011;10589;53.636;10.012;2024-01-25T13:39:48;27.43;;;5.50;;
20857;SDS011;10589;53.636;10.012;2024-01-25T13:42:14;20.50;;;4.50;;
20857;SDS011;10589;53.636;10.012;2024-01-25T13:44:39;27.00;;;4.50;;
20857;SDS011;10589;53.636;10.012;2024-01-25T13:47:05;25.27;;;3.73;;
20857;SDS011;10589;53.636;10.012;2024-01-25T13:49:31;23.23;;;4.00;;
20857;SDS011;10589;53.636;10.012;2024-01-25T13:51:56;21.57;;;4.17;;
20857;SDS011;10589;53.636;10.012;2024-01-25T13:54:24;24.20;;;4.43;;
20857;SDS011;10589;53.636;10.012;2024-01-25T13:56:50;26.13;;;4.13;;
20857;SDS011;10589;53.636;10.012;2024-01-25T13:59:16;22.13;;;4.20;;
20857;SDS011;10589;53.636;10.012;2024-01-25T14:01:41;21.43;;;4.10;;
20857;SDS011;10589;53.636;10.012;2024-01-25T14:04:07;21.03;;;4.23;;
20857;SDS011;10589;53.636;10.012;2024-01-25T14:06:32;23.10;;;4.23;;
20857;SDS011;10589;53.636;10.012;2024-01-25T14:08:58;28.60;;;5.00;;
20857;SDS011;10589;53.636;10.012;2024-01-25T14:11:24;27.33;;;4.90;;
20857;SDS011;10589;53.636;10.012;2024-01-25T14:13:51;28.57;;;4.87;;
20857;SDS011;10589;53.636;10.012;2024-01-25T14:16:17;28.17;;;4.67;;
20857;SDS011;10589;53.636;10.012;2024-01-25T14:18:42;26.10;;;3.90;;
20857;SDS011;10589;53.636;10.012;2024-01-25T14:21:09;22.13;;;4.00;;
20857;SDS011;10589;53.636;10.012;2024-01-25T14:23:34;30.80;;;4.93;;
20857;SDS011;10589;53.636;10.012;2024-01-25T14:26:00;30.40;;;5.03;;
20857;SDS011;10589;53.636;10.012;2024-01-25T14:28:26;18.93;;;3.80;;
20857;SDS011;10589;53.636;10.012;2024-01-25T14:30:51;26.60;;;4.40;;
20857;SDS011;10589;53.636;10.012;2024-01-25T14:33:17;28.77;;;5.07;;
20857;SDS011;10589;53.636;10.012;2024-01-25T14:35:42;24.63;;;4.07;;
20857;SDS011;10589;53.636;10.012;2024-01-25T14:38:08;18.40;;;3.63;;
20857;SDS011;10589;53.636;10.012;2024-01-25T14:40:34;26.17;;;5.17;;
20857;SDS011;10589;53.636;10.012;2024-01-25T14:42:59;24.77;;;4.23;;
20857;SDS011;10589;53.636;10.012;2024-01-25T14:45:26;21.67;;;5.43;;
20857;SDS011;10589;53.636;10.012;2024-01-25T14:47:53;31.20;;;4.90;;
20857;SDS011;10589;53.636;10.012;2024-01-25T14:50:19;27.57;;;4.37;;
20857;SDS011;10589;53.636;10.012;2024-01-25T14:52:45;25.47;;;4.50;;
20857;SDS011;10589;53.636;10.012;2024-01-25T14:55:11;20.53;;;4.23;;
20857;SDS011;10589;53.636;10.012;2024-01-25T14:57:37;22.63;;;3.60;;
20857;SDS011;10589;53.636;10.012;2024-01-25T15:00:03;19.70;;;4.07;;
20857;SDS011;10589;53.636;10.012;2024-01-25T15:02:32;21.37;;;4.90;;
20857;SDS011;10589;53.636;10.012;2024-01-25T15:04:58;14.60;;;3.20;;
20857;SDS011;10589;53.636;10.012;2024-01-25T15:07:24;18.80;;;3.53;;
20857;SDS011;10589;53.636;10.012;2024-01-25T15:09:49;25.33;;;4.63;;
20857;SDS011;10589;53.636;10.012;2024-01-25T15:12:15;25.77;;;4.37;;
20857;SDS011;10589;53.636;10.012;2024-01-25T15:14:41;21.13;;;3.77;;
20857;SDS011;10589;53.636;10.012;2024-01-25T15:17:07;17.37;;;3.40;;
20857;SDS011;10589;53.636;10.012;2024-01-25T15:19:32;19.67;;;2.93;;
20857;SDS011;10589;53.636;10.012;2024-01-25T15:21:58;15.03;;;3.00;;
20857;SDS011;10589;53.636;10.012;2024-01-25T15:24:24;25.20;;;3.67;;
20857;SDS011;10589;53.636;10.012;2024-01-25T15:26:51;23.90;;;3.03;;
20857;SDS011;10589;53.636;10.012;2024-01-25T15:29:17;18.30;;;4.20;;
20857;SDS011;10589;53.636;10.012;2024-01-25T15:31:43;22.60;;;3.73;;
20857;SDS011;10589;53.636;10.012;2024-01-25T15:34:09;20.67;;;3.23;;
20857;SDS011;10589;53.636;10.012;2024-01-25T15:36:35;26.83;;;4.60;;
20857;SDS011;10589;53.636;10.012;2024-01-25T15:39:01;15.73;;;3.47;;
20857;SDS011;10589;53.636;10.012;2024-01-25T15:41:28;18.40;;;3.33;;
20857;SDS011;10589;53.636;10.012;2024-01-25T15:43:55;23.00;;;4.00;;
20857;SDS011;10589;53.636;10.012;2024-01-25T15:46:21;19.97;;;3.73;;
20857;SDS011;10589;53.636;10.012;2024-01-25T15:48:46;20.83;;;4.00;;
20857;SDS011;10589;53.636;10.012;2024-01-25T15:51:12;18.70;;;3.30;;
20857;SDS011;10589;53.636;10.012;2024-01-25T15:53:38;22.40;;;3.63;;
20857;SDS011;10589;53.636;10.012;2024-01-25T15:56:04;20.17;;;3.87;;
20857;SDS011;10589;53.636;10.012;2024-01-25T15:58:30;19.70;;;4.20;;
20857;SDS011;10589;53.636;10.012;2024-01-25T16:00:55;19.73;;;3.53;;
20857;SDS011;10589;53.636;10.012;2024-01-25T16:03:21;16.53;;;3.47;;
20857;SDS011;10589;53.636;10.012;2024-01-25T16:05:46;24.63;;;4.10;;
20857;SDS011;10589;53.636;10.012;2024-01-25T16:08:12;16.93;;;4.63;;
20857;SDS011;10589;53.636;10.012;2024-01-25T16:10:37;20.67;;;3.73;;
20857;SDS011;10589;53.636;10.012;2024-01-25T16:13:03;24.10;;;3.73;;
20857;SDS011;10589;53.636;10.012;2024-01-25T16:15:28;22.70;;;4.00;;
20857;SDS011;10589;53.636;10.012;2024-01-25T16:17:54;24.30;;;3.60;;
20857;SDS011;10589;53.636;10.012;2024-01-25T16:20:20;16.83;;;3.80;;
20857;SDS011;10589;53.636;10.012;2024-01-25T16:22:46;14.93;;;3.80;;
20857;SDS011;10589;53.636;10.012;2024-01-25T16:25:12;21.03;;;3.77;;
20857;SDS011;10589;53.636;10.012;2024-01-25T16:27:38;20.50;;;4.60;;
20857;SDS011;10589;53.636;10.012;2024-01-25T16:30:04;22.67;;;4.63;;
20857;SDS011;10589;53.636;10.012;2024-01-25T16:32:30;27.17;;;5.60;;
20857;SDS011;10589;53.636;10.012;2024-01-25T16:34:56;23.93;;;4.20;;
20857;SDS011;10589;53.636;10.012;2024-01-25T16:37:21;27.57;;;4.87;;
20857;SDS011;10589;53.636;10.012;2024-01-25T16:39:47;24.57;;;5.13;;
20857;SDS011;10589;53.636;10.012;2024-01-25T16:42:12;22.17;;;4.87;;
20857;SDS011;10589;53.636;10.012;2024-01-25T16:44:38;26.83;;;5.07;;
20857;SDS011;10589;53.636;10.012;2024-01-25T16:47:04;29.17;;;5.00;;
20857;SDS011;10589;53.636;10.012;2024-01-25T16:49:29;22.27;;;4.67;;
20857;SDS011;10589;53.636;10.012;2024-01-25T16:51:55;30.80;;;6.47;;
20857;SDS011;10589;53.636;10.012;2024-01-25T16:54:20;20.67;;;5.53;;
20857;SDS011;10589;53.636;10.012;2024-01-25T16:56:46;24.47;;;5.43;;
20857;SDS011;10589;53.636;10.012;2024-01-25T16:59:13;27.10;;;4.97;;
20857;SDS011;10589;53.636;10.012;2024-01-25T17:01:39;26.30;;;5.47;;
20857;SDS011;10589;53.636;10.012;2024-01-25T17:04:05;22.13;;;5.70;;
20857;SDS011;10589;53.636;10.012;2024-01-25T17:06:32;26.30;;;5.40;;
20857;SDS011;10589;53.636;10.012;2024-01-25T17:08:58;22.73;;;4.90;;
20857;SDS011;10589;53.636;10.012;2024-01-25T17:11:24;22.43;;;5.47;;
20857;SDS011;10589;53.636;10.012;2024-01-25T17:13:51;21.13;;;4.63;;
20857;SDS011;10589;53.636;10.012;2024-01-25T17:16:17;18.50;;;5.17;;
20857;SDS011;10589;53.636;10.012;2024-01-25T17:18:42;34.20;;;5.77;;
20857;SDS011;10589;53.636;10.012;2024-01-25T17:21:08;27.87;;;5.57;;
20857;SDS011;10589;53.636;10.012;2024-01-25T17:23:34;27.47;;;6.13;;
20857;SDS011;10589;53.636;10.012;2024-01-25T17:25:59;22.13;;;4.67;;
20857;SDS011;10589;53.636;10.012;2024-01-25T17:28:25;29.80;;;5.90;;
20857;SDS011;10589;53.636;10.012;2024-01-25T17:30:52;26.30;;;5.57;;
20857;SDS011;10589;53.636;10.012;2024-01-25T17:33:17;24.80;;;5.40;;
20857;SDS011;10589;53.636;10.012;2024-01-25T17:35:43;27.27;;;5.47;;
20857;SDS011;10589;53.636;10.012;2024-01-25T17:38:13;28.57;;;5.97;;
20857;SDS011;10589;53.636;10.012;2024-01-25T17:40:42;22.17;;;4.57;;
20857;SDS011;10589;53.636;10.012;2024-01-25T17:43:08;23.83;;;5.50;;
20857;SDS011;10589;53.636;10.012;2024-01-25T17:45:34;18.83;;;6.23;;
20857;SDS011;10589;53.636;10.012;2024-01-25T17:48:00;21.00;;;4.87;;
20857;SDS011;10589;53.636;10.012;2024-01-25T17:50:25;20.20;;;5.10;;
20857;SDS011;10589;53.636;10.012;2024-01-25T17:52:51;24.37;;;5.37;;
20857;SDS011;10589;53.636;10.012;2024-01-25T17:55:17;23.60;;;5.40;;
20857;SDS011;10589;53.636;10.012;2024-01-25T17:57:42;29.37;;;6.33;;
20857;SDS011;10589;53.636;10.012;2024-01-25T18:00:08;19.97;;;5.27;;
20857;SDS011;10589;53.636;10.012;2024-01-25T18:02:34;22.43;;;6.03;;
20857;SDS011;10589;53.636;10.012;2024-01-25T18:05:00;25.00;;;5.77;;
20857;SDS011;10589;53.636;10.012;2024-01-25T18:07:26;36.03;;;6.33;;
20857;SDS011;10589;53.636;10.012;2024-01-25T18:09:53;20.10;;;5.27;;
20857;SDS011;10589;53.636;10.012;2024-01-25T18:12:18;21.87;;;5.27;;
20857;SDS011;10589;53.636;10.012;2024-01-25T18:14:44;23.50;;;4.83;;
20857;SDS011;10589;53.636;10.012;2024-01-25T18:17:10;22.93;;;5.13;;
20857;SDS011;10589;53.636;10.012;2024-01-25T18:19:35;23.47;;;5.40;;
20857;SDS011;10589;53.636;10.012;2024-01-25T18:22:01;23.20;;;4.87;;
20857;SDS011;10589;53.636;10.012;2024-01-25T18:24:27;20.63;;;4.90;;
20857;SDS011;10589;53.636;10.012;2024-01-25T18:26:52;21.97;;;5.53;;
20857;SDS011;10589;53.636;10.012;2024-01-25T18:29:18;30.33;;;5.60;;
20857;SDS011;10589;53.636;10.012;2024-01-25T18:31:45;20.83;;;4.53;;
20857;SDS011;10589;53.636;10.012;2024-01-25T18:34:11;22.93;;;4.27;;
20857;SDS011;10589;53.636;10.012;2024-01-25T18:36:36;19.83;;;5.17;;
20857;SDS011;10589;53.636;10.012;2024-01-25T18:39:02;25.23;;;5.10;;
20857;SDS011;10589;53.636;10.012;2024-01-25T18:41:28;28.53;;;6.53;;
20857;SDS011;10589;53.636;10.012;2024-01-25T18:43:54;27.77;;;6.63;;
20857;SDS011;10589;53.636;10.012;2024-01-25T18:46:19;26.37;;;5.93;;
20857;SDS011;10589;53.636;10.012;2024-01-25T18:48:45;26.10;;;6.23;;
20857;SDS011;10589;53.636;10.012;2024-01-25T18:51:10;24.10;;;5.43;;
20857;SDS011;10589;53.636;10.012;2024-01-25T18:53:37;21.97;;;6.73;;
20857;SDS011;10589;53.636;10.012;2024-01-25T18:56:03;20.37;;;5.33;;
20857;SDS011;10589;53.636;10.012;2024-01-25T18:58:29;27.10;;;5.73;;
20857;SDS011;10589;53.636;10.012;2024-01-25T19:00:56;21.00;;;5.33;;